createdAt,value
2022-12-28T00:05:02.016Z,102590.09
2022-12-28T00:10:08.667Z,102591.81
2022-12-28T00:15:14.565Z,102591.84
2022-12-28T00:20:20.685Z,102602.22
2022-12-28T00:25:25.741Z,102601.44
2022-12-28T00:30:32.366Z,102594.72
2022-12-28T00:35:37.464Z,102594.00
2022-12-28T00:40:42.484Z,102602.59
2022-12-28T00:45:50.670Z,102603.53
2022-12-28T00:51:04.226Z,102602.78
2022-12-28T00:56:10.934Z,102610.59
2022-12-28T01:01:23.779Z,102610.69
2022-12-28T01:06:30.333Z,102617.63
2022-12-28T01:11:35.795Z,102617.75
2022-12-28T01:16:41.702Z,102627.22
2022-12-28T01:21:46.205Z,102629.88
2022-12-28T01:26:51.257Z,102628.25
2022-12-28T01:31:56.419Z,102675.47
2022-12-28T01:37:01.574Z,102631.81
2022-12-28T01:42:06.806Z,102635.31
2022-12-28T01:47:35.480Z,102637.06
2022-12-28T01:53:08.487Z,102625.94
2022-12-28T01:58:21.275Z,102630.25
2022-12-28T02:03:31.106Z,102645.69
2022-12-28T02:08:44.942Z,102621.63
2022-12-28T02:13:51.778Z,102631.91
2022-12-28T02:18:57.616Z,102632.72
2022-12-28T02:24:11.853Z,102611.13
2022-12-28T02:29:37.631Z,102622.22
2022-12-28T02:35:11.460Z,102592.81
2022-12-28T02:40:28.640Z,102614.22
2022-12-28T02:46:00.768Z,102580.44
2022-12-28T02:51:31.801Z,102562.13
2022-12-28T02:57:01.086Z,102562.66
2022-12-28T03:02:16.406Z,102557.13
2022-12-28T03:08:14.780Z,102541.28
2022-12-28T03:13:46.039Z,102533.19
2022-12-28T03:19:40.895Z,102523.38
2022-12-28T03:25:06.022Z,102518.84
2022-12-28T03:30:33.594Z,102509.97
2022-12-28T03:36:16.467Z,102490.75
2022-12-28T03:41:36.459Z,102481.88
2022-12-28T03:47:11.900Z,102476.44
2022-12-28T03:52:18.191Z,102464.06
2022-12-28T03:57:25.236Z,102468.16
2022-12-28T04:02:31.211Z,102453.13
2022-12-28T04:07:37.232Z,102442.41
2022-12-28T04:12:41.937Z,102429.22
2022-12-28T04:18:06.883Z,102418.50
2022-12-28T04:23:11.869Z,102445.81
2022-12-28T04:28:17.878Z,102428.06
2022-12-28T04:33:55.066Z,102413.91
2022-12-28T04:39:02.318Z,102399.69
2022-12-28T04:44:08.071Z,102425.50
2022-12-28T04:49:13.813Z,102379.44
2022-12-28T04:54:19.193Z,102364.63
2022-12-28T04:59:24.514Z,102359.25
2022-12-28T05:04:30.848Z,102347.81
2022-12-28T05:09:36.113Z,102346.66
2022-12-28T05:14:41.814Z,102334.22
2022-12-28T05:19:46.696Z,102329.63
2022-12-28T05:24:52.147Z,102317.28
2022-12-28T05:29:57.426Z,102312.88
2022-12-28T05:35:02.699Z,102304.09
2022-12-28T05:40:08.798Z,102298.78
2022-12-28T05:45:14.216Z,102299.56
2022-12-28T05:50:19.851Z,102288.16
2022-12-28T05:55:25.152Z,102282.16
2022-12-28T06:00:31.265Z,102278.63
2022-12-28T06:05:37.769Z,102278.56
2022-12-28T06:10:44.232Z,102269.88
2022-12-28T06:15:49.056Z,102268.19
2022-12-28T06:20:57.243Z,102274.00
2022-12-28T06:26:04.118Z,102274.94
2022-12-28T06:31:13.254Z,102263.84
2022-12-28T06:36:20.459Z,102259.34
2022-12-28T06:41:26.552Z,102262.16
2022-12-28T06:46:33.044Z,102261.31
2022-12-28T06:51:43.482Z,102264.88
2022-12-28T06:56:48.813Z,102265.06
2022-12-28T07:01:54.265Z,102264.38
2022-12-28T07:06:59.830Z,102267.03
2022-12-28T07:12:05.274Z,102263.81
2022-12-28T07:17:11.408Z,102269.22
2022-12-28T07:22:17.565Z,102271.19
2022-12-28T07:27:22.885Z,102280.06
2022-12-28T07:32:28.313Z,102272.50
2022-12-28T07:37:34.174Z,102276.84
2022-12-28T07:42:41.438Z,102283.03
2022-12-28T07:47:46.835Z,102287.59
2022-12-28T07:52:51.841Z,102279.84
2022-12-28T07:57:57.698Z,102281.53
2022-12-28T08:03:03.179Z,102286.94
2022-12-28T08:08:08.838Z,102285.38
2022-12-28T08:13:14.297Z,102280.19
2022-12-28T08:18:19.122Z,102287.06
2022-12-28T08:23:25.532Z,102291.59
2022-12-28T08:28:30.213Z,102298.50
2022-12-28T08:33:35.742Z,102301.16
2022-12-28T08:38:43.104Z,102309.22
2022-12-28T08:43:48.954Z,102307.09
2022-12-28T08:48:56.398Z,102355.75
2022-12-28T08:54:02.717Z,102321.50
2022-12-28T08:59:08.753Z,102322.69
2022-12-28T09:04:19.411Z,102325.59
2022-12-28T09:09:25.872Z,102328.47
2022-12-28T09:14:30.863Z,102341.78
2022-12-28T09:19:35.775Z,102367.97
2022-12-28T09:24:41.489Z,102341.50
2022-12-28T09:29:46.619Z,102344.38
2022-12-28T09:34:53.413Z,102354.16
2022-12-28T09:40:01.622Z,102360.50
2022-12-28T09:45:15.081Z,102361.56
2022-12-28T09:50:27.104Z,102362.53
2022-12-28T09:55:34.203Z,102382.56
2022-12-28T10:00:50.516Z,102381.88
2022-12-28T10:05:59.299Z,102420.78
2022-12-28T10:11:06.567Z,102415.69
2022-12-28T10:16:20.196Z,102415.75
2022-12-28T10:21:32.491Z,102377.81
2022-12-28T10:26:38.289Z,102389.94
2022-12-28T10:31:44.637Z,102386.69
2022-12-28T10:36:52.303Z,102394.69
2022-12-28T10:41:59.566Z,102393.19
2022-12-28T10:47:08.681Z,102392.53
2022-12-28T10:52:19.727Z,102391.84
2022-12-28T10:57:32.808Z,102398.88
2022-12-28T11:02:38.810Z,102407.63
2022-12-28T11:07:45.465Z,102406.91
2022-12-28T11:12:51.066Z,102431.13
2022-12-28T11:18:19.830Z,102416.59
2022-12-28T11:23:27.519Z,102426.13
2022-12-28T11:28:32.405Z,102431.41
2022-12-28T11:33:48.535Z,102431.44
2022-12-28T11:38:57.024Z,102435.00
2022-12-28T11:44:05.926Z,102439.41
2022-12-28T11:49:26.613Z,102436.03
2022-12-28T11:54:37.092Z,102443.88
2022-12-28T11:59:42.392Z,102447.41
2022-12-28T12:04:48.947Z,102443.22
2022-12-28T12:10:16.656Z,102452.81
2022-12-28T12:15:39.505Z,102464.94
2022-12-28T12:20:47.357Z,102466.78
2022-12-28T12:25:56.460Z,102522.78
2022-12-28T12:31:03.730Z,102480.72
2022-12-28T12:36:42.331Z,102479.00
2022-12-28T12:42:16.268Z,102485.03
2022-12-28T12:47:58.362Z,102488.44
2022-12-28T12:53:32.807Z,102497.06
2022-12-28T12:58:50.060Z,102496.31
2022-12-28T13:03:58.624Z,102492.91
2022-12-28T13:09:06.148Z,102512.69
2022-12-28T13:14:23.149Z,102506.69
2022-12-28T13:19:31.331Z,102541.00
2022-12-28T13:24:40.893Z,102531.56
2022-12-28T13:29:54.332Z,102551.28
2022-12-28T13:34:59.403Z,102536.72
2022-12-28T13:40:15.301Z,102541.88
2022-12-28T13:45:23.558Z,102553.03
2022-12-28T13:50:36.902Z,102557.31
2022-12-28T13:55:51.881Z,102549.59
2022-12-28T14:01:02.433Z,102553.88
2022-12-28T14:06:10.064Z,102569.31
2022-12-28T14:11:15.387Z,102577.03
2022-12-28T14:16:21.376Z,102574.44
2022-12-28T14:21:45.518Z,102570.16
2022-12-28T14:27:00.175Z,102571.88
2022-12-28T14:32:12.892Z,102582.19
2022-12-28T14:37:41.903Z,102580.47
2022-12-28T14:42:52.577Z,102587.34
2022-12-28T14:48:01.843Z,102596.78
2022-12-28T14:53:16.790Z,102601.06
2022-12-28T14:58:47.835Z,102603.63
2022-12-28T15:04:06.050Z,102601.91
2022-12-28T15:09:13.153Z,102609.63
2022-12-28T15:14:19.291Z,102622.47
2022-12-28T15:19:24.766Z,102622.44
2022-12-28T15:24:34.127Z,102631.88
2022-12-28T15:35:09.474Z,102623.22
2022-12-28T15:40:14.782Z,102630.06
2022-12-28T15:45:20.373Z,102650.66
2022-12-28T15:50:25.652Z,102654.91
2022-12-28T15:55:31.616Z,102648.84
2022-12-28T16:00:41.512Z,102653.94
2022-12-28T16:05:51.030Z,102640.25
2022-12-28T16:10:57.082Z,102640.25
2022-12-28T16:16:13.852Z,102640.25
2022-12-28T16:21:20.517Z,102649.66
2022-12-28T16:26:26.585Z,102654.00
2022-12-28T16:31:37.107Z,102650.66
2022-12-28T16:36:45.433Z,102651.56
2022-12-28T16:41:49.632Z,102654.19
2022-12-28T16:46:57.778Z,102649.06
2022-12-28T16:52:02.862Z,102648.25
2022-12-28T16:57:08.014Z,102653.41
2022-12-28T17:02:16.079Z,102662.00
2022-12-28T17:07:21.661Z,102668.00
2022-12-28T17:12:26.717Z,102669.75
2022-12-28T17:17:31.706Z,102679.19
2022-12-28T17:22:36.970Z,102689.50
2022-12-28T17:27:42.126Z,102687.75
2022-12-28T17:32:47.410Z,102729.84
2022-12-28T17:37:52.728Z,102726.41
2022-12-28T17:42:57.520Z,102690.31
2022-12-28T17:48:02.659Z,102680.03
2022-12-28T17:53:07.713Z,102697.19
2022-12-28T17:58:12.803Z,102686.88
2022-12-28T18:03:18.002Z,102689.50
2022-12-28T18:08:24.271Z,102695.50
2022-12-28T18:13:29.220Z,102687.78
2022-12-28T18:18:34.825Z,102693.78
2022-12-28T18:23:40.240Z,102708.38
2022-12-28T18:28:47.035Z,102713.53
2022-12-28T18:33:52.246Z,102709.25
2022-12-28T18:38:57.561Z,102708.38
2022-12-28T18:44:03.950Z,102750.44
2022-12-28T18:49:09.021Z,102699.81
2022-12-28T18:54:14.328Z,102703.25
2022-12-28T18:59:19.518Z,102716.97
2022-12-28T19:04:24.652Z,102701.50
2022-12-28T19:09:29.865Z,102704.09
2022-12-28T19:14:34.461Z,102696.34
2022-12-28T19:19:39.353Z,102692.06
2022-12-28T19:24:44.233Z,102706.66
2022-12-28T19:29:51.730Z,102698.06
2022-12-28T19:34:57.554Z,102680.03
2022-12-28T19:40:02.504Z,102689.47
2022-12-28T19:45:10.261Z,102695.50
2022-12-28T19:50:16.517Z,102688.63
2022-12-28T19:55:21.960Z,102690.31
2022-12-28T20:00:27.079Z,102693.75
2022-12-28T20:05:37.589Z,102692.88
2022-12-28T20:10:42.760Z,102696.31
2022-12-28T20:15:47.454Z,102695.47
2022-12-28T20:21:18.700Z,102705.72
2022-12-28T20:26:19.283Z,102691.13
2022-12-28T20:31:25.043Z,102699.72
2022-12-28T20:36:33.089Z,102694.56
2022-12-28T20:41:56.254Z,102684.28
2022-12-28T20:47:02.875Z,102686.88
2022-12-28T20:52:08.072Z,102696.31
2022-12-28T20:57:13.169Z,102692.88
2022-12-28T21:02:18.814Z,102699.75
2022-12-28T21:07:24.072Z,102716.94
2022-12-28T21:12:29.949Z,102701.47
2022-12-28T21:17:37.414Z,102709.22
2022-12-28T21:22:42.408Z,102704.94
2022-12-28T21:27:46.994Z,102722.09
2022-12-28T21:32:52.083Z,102726.38
2022-12-28T21:37:57.167Z,102729.81
2022-12-28T21:43:01.890Z,102724.66
2022-12-28T21:48:07.035Z,102733.25
2022-12-28T21:53:12.081Z,102734.94
2022-12-28T21:58:17.113Z,102746.13
2022-12-28T22:03:40.177Z,102748.69
2022-12-28T22:09:03.540Z,102755.53
2022-12-28T22:14:09.214Z,102759.00
2022-12-28T22:19:14.346Z,102751.22
2022-12-28T22:24:19.431Z,102758.97
2022-12-28T22:29:25.307Z,102758.94
2022-12-28T22:34:30.391Z,102763.22
2022-12-28T22:39:36.580Z,102768.34
2022-12-28T22:44:41.662Z,102822.38
2022-12-28T22:49:46.805Z,102776.91
2022-12-28T22:54:52.344Z,102770.91
2022-12-28T22:59:57.396Z,102816.31
2022-12-28T23:05:02.929Z,102776.88
2022-12-28T23:10:09.443Z,102775.16
2022-12-28T23:15:17.527Z,102785.47
2022-12-28T23:20:40.894Z,102787.19
2022-12-28T23:26:04.145Z,102785.44
2022-12-28T23:31:09.625Z,102786.28
2022-12-28T23:36:14.884Z,102792.31
2022-12-28T23:41:37.615Z,102844.66
2022-12-28T23:46:42.779Z,102800.03
2022-12-28T23:51:48.211Z,102797.47
2022-12-28T23:56:53.452Z,102809.50
